Weather observations for the past three days for
Milledgeville, Baldwin County Airport
Imperial (Metric)
Date Time (edt) Wind (mph) Vis. (mi.) Weather Sky Cond. Temperature (ºF) Relative Humidity Wind Chill (°F) Heat Index (°F) Pressure Precipitation (in)
Air Dwpt 6 hour altimeter (in) sea level (mb) 1 hr 3 hr 6 hr
Max. Min.
01 06:15 Calm 10.00 Fair CLR 73.4 73.4 100% 30.08 0.0
01 05:55 Calm 10.00 Fair CLR 73.4 73.4 100% 30.08 0.0
01 05:35 Calm 10.00 Fair CLR 73.4 73.4 100% 30.07 0.0
01 05:15 Calm 10.00 Fair CLR 73.4 73.4 100% 30.07 0.0
01 04:55 Calm 10.00 Fair CLR 75.2 73.4 94% 74 30.07 0.0
01 04:35 Calm 10.00 Fair CLR 75.2 73.4 94% 74 30.08 0.0
01 04:15 Calm 10.00 Fair CLR 75.2 73.4 94% 74 30.08 0.0
01 03:55 Calm 10.00 Fair CLR 75.2 73.4 94% 74 30.07 0.0
01 03:35 Calm 10.00 Fair CLR 77 73.4 89% 78 30.07 0.0
01 03:15 Calm 10.00 Fair CLR 77 73.4 89% 78 30.07 0.0
01 02:55 Calm 10.00 Fair CLR 77 73.4 89% 78 30.07 0.0
01 02:35 Calm 10.00 Fair CLR 77 73.4 89% 78 30.08 0.0
01 02:15 Calm 10.00 Fair CLR 78.8 73.4 84% 82 30.08 0.0
01 01:55 Calm 10.00 Fair CLR 78.8 73.4 84% 82 30.08 0.0
01 01:35 Calm 10.00 Fair CLR 78.8 73.4 84% 82 30.08 0.0
01 01:15 Calm 10.00 Fair CLR 77 71.6 83% 78 30.08 0.0
01 00:55 Calm 10.00 Fair CLR 78.8 71.6 79% 82 30.09 0.0
01 00:35 Calm 10.00 Fair CLR 78.8 71.6 79% 82 30.08 0.0
01 00:15 Calm 10.00 Fair CLR 78.8 71.6 79% 82 30.09 0.0
31 23:55 Calm 10.00 Fair CLR 78.8 71.6 79% 82 30.09 0.0
31 23:35 Calm 10.00 Fair CLR 78.8 71.6 79% 82 30.09 0.0
31 23:15 Calm 10.00 Fair CLR 78.8 71.6 79% 82 30.08 0.0
31 22:55 Calm 10.00 Fair CLR 80.6 71.6 74% 85 30.08 0.0
31 22:35 Calm 10.00 Fair CLR 80.6 71.6 74% 85 30.08 0.0
31 22:15 Calm 10.00 Fair CLR 80.6 73.4 79% 85 30.08 0.0
31 21:55 Calm 10.00 Fair CLR 80.6 73.4 79% 85 30.07 0.0
31 21:35 Vrbl 3 10.00 Fair CLR 82.4 71.6 70% 87 30.06 0.0
31 21:15 Calm 10.00 Fair CLR 84.2 69.8 62% 88 30.06 0.0
31 20:55 Calm 10.00 Fair CLR 82.4 69.8 66% 86 30.05 0.0
31 20:35 Calm 10.00 Fair CLR 86 69.8 59% 91 30.04 0.0
31 20:15 Calm 10.00 Fair CLR 87.8 68 52% 91 30.04 0.0
31 19:35 E 6 10.00 Fair CLR 93.2 68 44% 98 30.03 0.0
31 19:15 E 6 10.00 Fair CLR 93.2 66.2 41% 96 30.03 0.0
31 18:55 E 7 10.00 Fair CLR 95 66.2 39% 98 30.04 0.0
31 18:35 NE 5 10.00 Fair CLR 95 66.2 39% 98 30.04 0.0
31 18:15 E 6 10.00 A Few Clouds FEW060 95 66.2 39% 98 30.04 0.0
31 17:55 E 9 10.00 A Few Clouds FEW060 96.8 66.2 37% 100 30.04 0.0
31 17:35 Vrbl 7 G 15 10.00 Fair CLR 95 68 41% 100 30.04 0.0
31 17:15 Vrbl 3 10.00 Partly Cloudy FEW055 SCT065 93.2 66.2 41% 96 30.04 0.0
31 16:55 Vrbl 3 10.00 Mostly Cloudy SCT055 BKN070 95 68 41% 100 30.04 0.0
31 16:35 NE 7 10.00 A Few Clouds FEW055 96.8 68 39% 102 30.05 0.0
31 16:15 SE 5 10.00 Partly Cloudy SCT055 SCT065 95 68 41% 100 30.05 0.0
31 15:55 N 6 10.00 Fair CLR 95 69.8 44% 101 30.06 0.0
31 15:35 Vrbl 5 10.00 Partly Cloudy FEW065 SCT080 95 68 41% 100 30.07 0.0
31 15:15 Vrbl 6 10.00 A Few Clouds FEW048 FEW055 93.2 68 44% 98 30.08 0.0
31 14:55 Vrbl 5 G 12 10.00 Fair CLR 93.2 68 44% 98 30.08 0.0
31 14:35 NE 6 G 14 10.00 A Few Clouds FEW045 FEW055 FEW065 93.2 69.8 47% 99 30.09 0.0
31 14:15 Calm 10.00 Fair CLR 93.2 69.8 47% 99 30.1 0.0
31 13:55 E 8 10.00 Fair CLR 95 69.8 44% 101 30.11 0.0
31 13:35 Vrbl 6 G 14 10.00 Fair CLR 93.2 71.6 50% 101 30.12 0.0
31 13:15 NE 7 10.00 A Few Clouds FEW060 91.4 69.8 49% 97 30.12 0.0
31 12:55 Vrbl 5 10.00 A Few Clouds FEW060 89.6 69.8 52% 95 30.12 0.0
31 12:35 Calm 10.00 Partly Cloudy FEW037 FEW050 SCT060 89.6 71.6 55% 96 30.13 0.0
31 12:15 Vrbl 6 10.00 Partly Cloudy FEW036 SCT046 SCT055 89.6 69.8 52% 95 30.13 0.0
31 11:55 Calm 10.00 Partly Cloudy FEW034 SCT050 SCT055 87.8 71.6 59% 94 30.14 0.0
31 11:35 Vrbl 5 10.00 Partly Cloudy FEW032 FEW038 SCT050 89.6 73.4 59% 98 30.14 0.0
31 11:15 Calm 10.00 Fair CLR 87.8 73.4 62% 96 30.14 0.0
31 10:55 E 5 10.00 Fair CLR 86 73.4 66% 93 30.14 0.0
31 10:35 Vrbl 5 10.00 Fair CLR 86 75.2 70% 95 30.14 0.0
31 10:15 E 6 10.00 Fair CLR 84.2 75.2 74% 92 30.14 0.0
31 09:55 Calm 10.00 A Few Clouds FEW014 82.4 75.2 79% 89 30.14 0.0
31 09:35 Calm 10.00 A Few Clouds FEW014 80.6 75.2 84% 86 30.14 0.0
31 09:15 Calm 10.00 Fair CLR 80.6 75.2 84% 86 30.14 0.0
31 08:55 N 3 10.00 Fair CLR 78.8 75.2 89% 82 30.14 0.0
31 08:35 NW 5 10.00 Fair CLR 77 75.2 94% 78 30.14 0.0
31 08:15 Calm 10.00 Fair CLR 77 75.2 94% 78 30.13 0.0
31 07:55 Calm 10.00 Fair CLR 75.2 73.4 94% 74 30.13 0.0
31 07:35 Calm 10.00 Fair CLR 75.2 73.4 94% 74 30.12 0.0
31 07:15 Calm 10.00 Fair CLR 73.4 73.4 100% 30.12 0.0
31 06:55 Calm 10.00 Fair CLR 73.4 73.4 100% 30.12 0.0
31 06:35 Calm 10.00 A Few Clouds FEW047 73.4 73.4 100% 30.12 0.0
31 06:15 Calm 10.00 Mostly Cloudy BKN048 73.4 73.4 100% 30.11 0.0
31 05:55 Calm 10.00 Mostly Cloudy FEW017 BKN048 75.2 73.4 94% 74 30.11 0.0
31 05:35 Calm 10.00 Overcast BKN017 OVC050 75.2 75.2 100% 73 30.11 0.0
31 05:15 Calm 10.00 Overcast OVC017 75.2 75.2 100% 73 30.1 0.0
31 04:55 Calm 10.00 Mostly Cloudy BKN017 75.2 75.2 100% 73 30.1 0.0
31 04:35 Calm 10.00 Partly Cloudy SCT017 75.2 75.2 100% 73 30.1 0.0
31 04:15 Calm 10.00 Fair CLR 75.2 73.4 94% 74 30.09 0.0
31 03:55 Calm 10.00 A Few Clouds FEW017 75.2 73.4 94% 74 30.09 0.0
31 03:35 Calm 10.00 Partly Cloudy SCT017 75.2 73.4 94% 74 30.09 0.0
31 03:15 Calm 10.00 Partly Cloudy SCT018 75.2 73.4 94% 74 30.09 0.0
31 02:55 Calm 10.00 Mostly Cloudy BKN019 BKN043 75.2 73.4 94% 74 30.09 0.0
31 02:35 Calm 10.00 A Few Clouds FEW043 77 73.4 89% 78 30.09 0.0
31 02:15 Calm 10.00 A Few Clouds FEW044 77 73.4 89% 78 30.09 0.0
31 01:55 Calm 10.00 A Few Clouds FEW043 77 73.4 89% 78 30.1 0.0
31 01:35 Calm 10.00 Fair CLR 77 73.4 89% 78 30.1 0.0
31 01:15 Calm 10.00 Fair CLR 78.8 73.4 84% 82 30.1 0.0
31 00:55 SE 3 10.00 Fair CLR 78.8 73.4 84% 82 30.1 0.0
31 00:35 Calm 10.00 Fair CLR 78.8 73.4 84% 82 30.1 0.0
31 00:15 Calm 10.00 Fair CLR 78.8 73.4 84% 82 30.1 0.0
30 23:55 SE 3 10.00 Fair CLR 78.8 73.4 84% 82 30.1 0.0
30 23:35 Calm 10.00 Fair CLR 80.6 73.4 79% 85 30.11 0.0
30 23:15 Calm 10.00 Fair CLR 80.6 73.4 79% 85 30.1 0.0
30 22:55 Calm 10.00 Fair CLR 80.6 73.4 79% 85 30.1 0.0
30 22:35 Vrbl 3 10.00 Fair CLR 80.6 73.4 79% 85 30.1 0.0
30 22:15 Calm 10.00 Fair CLR 82.4 73.4 74% 88 30.1 0.0
30 21:55 Vrbl 3 10.00 Fair CLR 82.4 73.4 74% 88 30.1 0.0
30 21:35 Calm 10.00 Fair CLR 82.4 73.4 74% 88 30.09 0.0
30 21:15 Calm 10.00 Fair CLR 84.2 73.4 70% 91 30.09 0.0
30 20:55 Calm 0.75 Sky Obscured with Haze VV005 86 73.4 66% 93 30.09 0.0
30 20:35 E 5 10.00 Fair CLR 86 71.6 62% 92 30.08 0.0
30 20:15 E 8 10.00 A Few Clouds FEW050 FEW065 87.8 71.6 59% 94 30.07 0.0
30 19:55 E 8 10.00 A Few Clouds FEW050 89.6 69.8 52% 95 30.07 0.0
30 19:35 E 9 10.00 Fair CLR 89.6 69.8 52% 95 30.06 0.0
30 19:15 E 8 10.00 Fair CLR 91.4 69.8 49% 97 30.06 0.0
30 18:55 E 6 10.00 Fair CLR 91.4 68 46% 96 30.06 0.0
30 18:35 NE 5 10.00 Fair CLR 91.4 69.8 49% 97 30.05 0.0
30 18:15 Vrbl 5 10.00 Fair CLR 91.4 68 46% 96 30.05 0.0
30 17:55 E 8 10.00 Fair CLR 93.2 68 44% 98 30.06 0.0
30 17:35 NE 7 G 13 10.00 A Few Clouds FEW050 FEW055 93.2 68 44% 98 30.06 0.0
30 17:15 E 8 10.00 Fair CLR 93.2 68 44% 98 30.06 0.0
30 16:55 Vrbl 5 10.00 Fair CLR 93.2 68 44% 98 30.06 0.0
30 16:35 E 7 10.00 Fair CLR 91.4 68 46% 96 30.07 0.0
30 16:15 Vrbl 5 10.00 Fair CLR 93.2 68 44% 98 30.07 0.0
30 15:55 Calm 10.00 Fair CLR 93.2 68 44% 98 30.09 0.0
30 15:35 Calm 10.00 Fair CLR 91.4 68 46% 96 30.09 0.0
30 15:15 Vrbl 3 10.00 Fair CLR 91.4 69.8 49% 97 30.1 0.0
30 14:55 Vrbl 7 10.00 A Few Clouds FEW040 91.4 69.8 49% 97 30.1 0.0
30 14:35 E 10 10.00 Fair CLR 91.4 69.8 49% 97 30.11 0.0
30 14:15 E 9 10.00 Fair CLR 89.6 71.6 55% 96 30.12 0.0
30 13:55 NE 7 10.00 Fair CLR 89.6 69.8 52% 95 30.13 0.0
30 13:35 NE 6 10.00 Fair CLR 89.6 69.8 52% 95 30.14 0.0
30 13:15 E 8 10.00 A Few Clouds FEW036 FEW043 89.6 69.8 52% 95 30.15 0.0
30 12:55 Vrbl 5 G 15 10.00 A Few Clouds FEW034 87.8 69.8 55% 93 30.16 0.0
30 12:35 NE 6 10.00 A Few Clouds FEW030 86 71.6 62% 92 30.16 0.0
30 12:15 E 6 10.00 Fair CLR 86 71.6 62% 92 30.17 0.0
30 11:55 Vrbl 5 10.00 Partly Cloudy FEW019 FEW025 SCT055 84.2 73.4 70% 91 30.17 0.0
30 11:35 Vrbl 5 10.00 Mostly Cloudy FEW015 BKN024 BKN030 84.2 73.4 70% 91 30.18 0.0
30 11:15 Vrbl 6 10.00 Overcast SCT014 BKN021 OVC025 82.4 75.2 79% 89 30.18 0.0
30 10:55 Vrbl 5 10.00 Overcast BKN013 OVC019 80.6 75.2 84% 86 30.18 0.0
30 10:35 Vrbl 5 10.00 Overcast SCT008 OVC013 80.6 75.2 84% 86 30.18 0.0
30 10:15 NE 6 10.00 Overcast OVC007 78.8 75.2 89% 82 30.18 0.0
30 09:55 Vrbl 7 10.00 Overcast BKN006 OVC011 78.8 75.2 89% 82 30.18 0.0
30 09:35 NE 3 10.00 Overcast BKN005 OVC011 78.8 75.2 89% 82 30.18 0.0
30 09:15 Calm 10.00 Overcast OVC004 77 75.2 94% 78 30.18 0.0
30 08:55 Calm 10.00 Overcast OVC003 77 75.2 94% 78 30.17 0.0
30 08:35 E 5 6.00 Fog/Mist OVC002 75.2 75.2 100% 73 30.17 0.0
30 08:15 Calm 1.00 Fog/Mist OVC002 75.2 75.2 100% 73 30.17 0.0
30 07:55 Vrbl 5 0.50 Light Drizzle Fog/Mist OVC002 75.2 75.2 100% 73 30.16 0.0
30 07:35 Vrbl 5 2.50 Fog/Mist OVC002 75.2 75.2 100% 73 30.16 0.0
30 07:15 E 6 4.00 Fog/Mist OVC002 75.2 75.2 100% 73 30.15 0.0
30 06:55 E 7 0.75 Light Drizzle Fog/Mist OVC002 75.2 75.2 100% 73 30.14 0.0
30 06:35 E 5 3.00 Fog/Mist OVC003 75.2 73.4 94% 74 30.13 0.0
30 06:15 E 6 9.00 Overcast OVC003 75.2 73.4 94% 74 30.12 0.0
30 05:55 Calm 10.00 Overcast BKN004 OVC009 75.2 73.4 94% 74 30.12 0.0
30 05:35 Calm 9.00 Overcast OVC007 75.2 75.2 100% 73 30.11 0.0
30 05:15 Calm 10.00 Mostly Cloudy BKN006 BKN010 75.2 75.2 100% 73 30.12 0.0
30 04:55 Calm 10.00 Mostly Cloudy BKN007 BKN011 75.2 75.2 100% 73 30.12 0.0
30 04:35 Calm 10.00 Mostly Cloudy SCT007 BKN012 75.2 75.2 100% 73 30.12 0.0
30 04:15 E 3 10.00 Partly Cloudy SCT008 SCT012 SCT027 75.2 75.2 100% 73 30.12 0.0
30 03:55 E 5 10.00 A Few Clouds FEW008 77 75.2 94% 78 30.11 0.0
30 03:35 Calm 10.00 Fair CLR 75.2 75.2 100% 73 30.11 0.0
30 03:15 Calm 10.00 Fair CLR 77 75.2 94% 78 30.11 0.0
30 02:55 E 3 10.00 Fair CLR 77 75.2 94% 78 30.12 0.0
30 02:35 E 7 8.00 Fair CLR 77 75.2 94% 78 30.12 0.0
30 02:15 Vrbl 5 7.00 Fair CLR 77 73.4 89% 78 30.12 0.0
30 01:55 Vrbl 5 9.00 Fair CLR 77 73.4 89% 78 30.12 0.0
30 01:35 Vrbl 3 3.00 Fog/Mist CLR 77 73.4 89% 78 30.13 0.0
30 01:15 SE 5 5.00 Fog/Mist CLR 77 73.4 89% 78 30.13 0.0
30 00:55 SE 3 10.00 Fair CLR 77 75.2 94% 78 30.14 0.0
30 00:35 Calm 10.00 Fair CLR 78.8 75.2 89% 82 30.14 0.0
30 00:15 Calm 6.00 Fair with Haze CLR 78.8 75.2 89% 82 30.15 0.0
29 23:55 SE 5 5.00 Fair with Haze CLR 78.8 73.4 84% 82 30.15 0.0
29 23:35 Calm 10.00 Fair CLR 78.8 73.4 84% 82 30.15 0.0
29 23:15 Vrbl 5 9.00 Fair CLR 78.8 73.4 84% 82 30.15 0.0
29 22:55 Vrbl 3 8.00 Fair CLR 80.6 73.4 79% 85 30.16 0.0
29 22:35 Calm 8.00 Fair CLR 80.6 73.4 79% 85 30.15 0.0
29 22:15 SE 5 5.00 Fair with Haze CLR 80.6 73.4 79% 85 30.14 0.0
29 21:55 Vrbl 5 7.00 Fair CLR 80.6 73.4 79% 85 30.14 0.0
29 21:35 E 6 7.00 Fair CLR 82.4 73.4 74% 88 30.12 0.0
29 21:15 Vrbl 3 9.00 Fair CLR 82.4 73.4 74% 88 30.1 0.0
29 20:55 Calm 10.00 Fair CLR 80.6 73.4 79% 85 30.09 0.0
29 20:35 Calm 10.00 Fair CLR 82.4 75.2 79% 89 30.08 0.0
29 20:15 SE 3 10.00 Fair CLR 82.4 73.4 74% 88 30.08 0.0
29 19:55 Calm 10.00 Fair CLR 84.2 73.4 70% 91 30.07 0.0
29 19:35 Calm 10.00 Fair CLR 84.2 73.4 70% 91 30.07 0.0
29 19:15 Calm 10.00 Fair CLR 84.2 73.4 70% 91 30.08 0.0
29 18:55 Calm 10.00 Fair CLR 86 73.4 66% 93 30.07 0.0
29 18:35 Vrbl 5 10.00 Fair CLR 86 73.4 66% 93 30.07 0.0
29 18:15 Vrbl 5 10.00 Fair CLR 87.8 73.4 62% 96 30.07 0.0
29 17:55 Vrbl 5 10.00 Partly Cloudy SCT043 SCT055 SCT065 87.8 71.6 59% 94 30.07 0.0
29 17:35 Calm 10.00 Partly Cloudy SCT043 SCT055 SCT065 87.8 71.6 59% 94 30.06 0.0
29 17:15 Vrbl 3 10.00 A Few Clouds FEW040 89.6 69.8 52% 95 30.06 0.0
29 16:55 SE 6 10.00 A Few Clouds FEW040 89.6 71.6 55% 96 30.07 0.0
29 16:35 SE 7 10.00 Fair CLR 91.4 71.6 52% 99 30.08 0.0
29 16:15 Vrbl 6 10.00 Fair CLR 89.6 69.8 52% 95 30.09 0.0
29 15:55 E 6 10.00 Fair CLR 87.8 69.8 55% 93 30.09 0.0
29 15:35 Vrbl 7 10.00 Partly Cloudy SCT060 SCT070 89.6 69.8 52% 95 30.1 0.0
29 15:15 SE 3 10.00 Partly Cloudy FEW037 SCT065 87.8 69.8 55% 93 30.1 0.0
29 14:55 E 8 10.00 Mostly Cloudy BKN037 87.8 69.8 55% 93 30.11 0.0
29 14:35 SE 3 10.00 A Few Clouds FEW037 87.8 71.6 59% 94 30.12 0.0
29 14:15 SE 6 10.00 Partly Cloudy SCT036 87.8 69.8 55% 93 30.12 0.0
29 13:55 E 5 10.00 Partly Cloudy SCT036 87.8 69.8 55% 93 30.12 0.0
29 13:35 Calm 10.00 Fair CLR 86 71.6 62% 92 30.13 0.0
29 13:15 E 6 10.00 Fair CLR 87.8 71.6 59% 94 30.13 0.0
29 12:55 Vrbl 5 10.00 A Few Clouds FEW030 FEW036 87.8 71.6 59% 94 30.13 0.0
29 12:35 E 5 10.00 Fair CLR 86 71.6 62% 92 30.14 0.0
29 12:15 Vrbl 3 10.00 Fair CLR 86 73.4 66% 93 30.14 0.0
29 11:55 Vrbl 5 10.00 Fair CLR 84.2 73.4 70% 91 30.14 0.0
29 11:35 E 5 10.00 A Few Clouds FEW022 82.4 73.4 74% 88 30.15 0.0
29 11:15 Calm 10.00 Mostly Cloudy BKN021 82.4 73.4 74% 88 30.15 0.0
29 10:55 Calm 10.00 Mostly Cloudy BKN019 82.4 73.4 74% 88 30.14 0.0
29 10:35 Calm 10.00 Mostly Cloudy BKN018 80.6 73.4 79% 85 30.14 0.0
29 10:15 Vrbl 5 10.00 Overcast OVC018 80.6 73.4 79% 85 30.15 0.0
29 09:55 Vrbl 3 10.00 Overcast OVC019 78.8 71.6 79% 82 30.14 0.0
29 09:35 Calm 10.00 Overcast OVC018 77 71.6 83% 78 30.14 0.0
29 09:15 Calm 10.00 Mostly Cloudy BKN016 77 71.6 83% 78 30.14 0.0
29 08:55 Vrbl 3 10.00 Partly Cloudy SCT013 75.2 71.6 89% 75 30.13 0.0
29 08:35 Calm 10.00 Mostly Cloudy BKN013 75.2 71.6 89% 75 30.14 0.0
29 08:15 SE 5 10.00 A Few Clouds FEW013 75.2 71.6 89% 75 30.13 0.0
29 07:55 Vrbl 5 9.00 Mostly Cloudy FEW006 SCT013 BKN020 73.4 71.6 94% 30.13 0.0
29 07:35 Calm 10.00 Overcast FEW006 BKN021 OVC035 73.4 71.6 94% 30.12 0.0
29 07:15 Calm 10.00 Overcast BKN006 OVC021 73.4 73.4 100% 30.12 0.0
29 06:55 Calm 10.00 Overcast SCT006 BKN020 OVC038 73.4 71.6 94% 30.11 0.0
29 06:35 Calm 10.00 Partly Cloudy FEW005 SCT038 73.4 71.6 94% 30.09 0.0
Date Time (edt) Wind (mph) Vis. (mi.) Weather Sky Cond. Air Dwpt Max. Min. Relative Humidity Wind Chill (°F) Heat Index (°F) altimeter (in) sea level (mb) 1 hr 3 hr 6 hr
6 hour
Temperature (ºF) Pressure Precipitation (in)